sensor_id;sensor_type;location;lat;lon;timestamp;P1;durP1;ratioP1;P2;durP2;ratioP2
65189;SDS011;51777;53.570;9.984;2023-03-20T00:02:06;47.95;;;20.35;;
65189;SDS011;51777;53.570;9.984;2023-03-20T00:04:32;44.40;;;18.42;;
65189;SDS011;51777;53.570;9.984;2023-03-20T00:06:58;46.03;;;20.95;;
65189;SDS011;51777;53.570;9.984;2023-03-20T00:09:23;46.75;;;20.95;;
65189;SDS011;51777;53.570;9.984;2023-03-20T00:11:50;46.53;;;19.08;;
65189;SDS011;51777;53.570;9.984;2023-03-20T00:14:20;47.15;;;20.90;;
65189;SDS011;51777;53.570;9.984;2023-03-20T00:16:48;33.97;;;14.05;;
65189;SDS011;51777;53.570;9.984;2023-03-20T00:19:16;47.70;;;19.63;;
65189;SDS011;51777;53.570;9.984;2023-03-20T00:21:50;45.38;;;19.90;;
65189;SDS011;51777;53.570;9.984;2023-03-20T00:24:16;36.72;;;15.57;;
65189;SDS011;51777;53.570;9.984;2023-03-20T00:26:43;22.40;;;10.48;;
65189;SDS011;51777;53.570;9.984;2023-03-20T00:29:20;47.13;;;20.38;;
65189;SDS011;51777;53.570;9.984;2023-03-20T00:31:48;34.50;;;14.40;;
65189;SDS011;51777;53.570;9.984;2023-03-20T00:34:14;34.60;;;14.13;;
65189;SDS011;51777;53.570;9.984;2023-03-20T00:36:41;45.22;;;20.60;;
65189;SDS011;51777;53.570;9.984;2023-03-20T00:39:07;45.85;;;20.13;;
65189;SDS011;51777;53.570;9.984;2023-03-20T00:44:26;44.95;;;19.42;;
65189;SDS011;51777;53.570;9.984;2023-03-20T00:46:56;46.80;;;19.65;;
65189;SDS011;51777;53.570;9.984;2023-03-20T00:49:29;46.75;;;19.95;;
65189;SDS011;51777;53.570;9.984;2023-03-20T00:51:58;44.63;;;19.50;;
65189;SDS011;51777;53.570;9.984;2023-03-20T00:54:25;48.35;;;19.95;;
65189;SDS011;51777;53.570;9.984;2023-03-20T00:59:17;47.25;;;20.23;;
65189;SDS011;51777;53.570;9.984;2023-03-20T01:01:45;44.92;;;20.83;;
65189;SDS011;51777;53.570;9.984;2023-03-20T01:04:11;48.65;;;19.40;;
65189;SDS011;51777;53.570;9.984;2023-03-20T01:06:39;39.78;;;17.73;;
65189;SDS011;51777;53.570;9.984;2023-03-20T01:09:04;44.03;;;19.73;;
65189;SDS011;51777;53.570;9.984;2023-03-20T01:11:30;45.05;;;20.17;;
65189;SDS011;51777;53.570;9.984;2023-03-20T01:13:55;38.42;;;17.25;;
65189;SDS011;51777;53.570;9.984;2023-03-20T01:16:22;40.83;;;19.50;;
65189;SDS011;51777;53.570;9.984;2023-03-20T01:18:50;41.88;;;18.85;;
65189;SDS011;51777;53.570;9.984;2023-03-20T01:21:17;38.85;;;18.92;;
65189;SDS011;51777;53.570;9.984;2023-03-20T01:23:43;42.83;;;19.63;;
65189;SDS011;51777;53.570;9.984;2023-03-20T01:26:19;45.45;;;19.80;;
65189;SDS011;51777;53.570;9.984;2023-03-20T01:28:45;40.90;;;18.77;;
65189;SDS011;51777;53.570;9.984;2023-03-20T01:31:11;26.52;;;11.18;;
65189;SDS011;51777;53.570;9.984;2023-03-20T01:33:38;17.58;;;9.23;;
65189;SDS011;51777;53.570;9.984;2023-03-20T01:36:03;35.20;;;15.57;;
65189;SDS011;51777;53.570;9.984;2023-03-20T01:38:29;40.08;;;17.75;;
65189;SDS011;51777;53.570;9.984;2023-03-20T01:41:14;41.20;;;19.13;;
65189;SDS011;51777;53.570;9.984;2023-03-20T01:43:43;17.08;;;8.95;;
65189;SDS011;51777;53.570;9.984;2023-03-20T01:48:55;39.38;;;16.55;;
65189;SDS011;51777;53.570;9.984;2023-03-20T01:51:25;41.67;;;18.85;;
65189;SDS011;51777;53.570;9.984;2023-03-20T01:53:54;44.17;;;19.08;;
65189;SDS011;51777;53.570;9.984;2023-03-20T01:56:27;20.45;;;10.77;;
65189;SDS011;51777;53.570;9.984;2023-03-20T01:59:02;45.47;;;18.85;;
65189;SDS011;51777;53.570;9.984;2023-03-20T02:01:33;43.63;;;19.58;;
65189;SDS011;51777;53.570;9.984;2023-03-20T02:04:00;43.72;;;19.60;;
65189;SDS011;51777;53.570;9.984;2023-03-20T02:06:26;42.53;;;18.92;;
65189;SDS011;51777;53.570;9.984;2023-03-20T02:08:53;41.95;;;18.50;;
65189;SDS011;51777;53.570;9.984;2023-03-20T02:11:19;44.17;;;19.40;;
65189;SDS011;51777;53.570;9.984;2023-03-20T02:13:48;38.00;;;15.77;;
65189;SDS011;51777;53.570;9.984;2023-03-20T02:16:16;45.97;;;19.05;;
65189;SDS011;51777;53.570;9.984;2023-03-20T02:18:42;44.45;;;18.90;;
65189;SDS011;51777;53.570;9.984;2023-03-20T02:23:49;46.20;;;19.13;;
65189;SDS011;51777;53.570;9.984;2023-03-20T02:26:29;47.60;;;19.55;;
65189;SDS011;51777;53.570;9.984;2023-03-20T02:35:04;43.70;;;17.98;;
65189;SDS011;51777;53.570;9.984;2023-03-20T02:46:30;34.08;;;15.23;;
65189;SDS011;51777;53.570;9.984;2023-03-20T02:58:16;25.80;;;12.02;;
65189;SDS011;51777;53.570;9.984;2023-03-20T03:03:42;22.42;;;11.23;;
65189;SDS011;51777;53.570;9.984;2023-03-20T03:06:31;25.17;;;11.75;;
65189;SDS011;51777;53.570;9.984;2023-03-20T03:09:11;21.25;;;10.13;;
65189;SDS011;51777;53.570;9.984;2023-03-20T03:11:42;22.48;;;10.88;;
65189;SDS011;51777;53.570;9.984;2023-03-20T03:14:23;20.30;;;10.63;;
65189;SDS011;51777;53.570;9.984;2023-03-20T03:16:50;18.27;;;9.18;;
65189;SDS011;51777;53.570;9.984;2023-03-20T03:19:18;20.92;;;10.02;;
65189;SDS011;51777;53.570;9.984;2023-03-20T03:21:47;18.65;;;9.60;;
65189;SDS011;51777;53.570;9.984;2023-03-20T03:24:55;19.17;;;9.45;;
65189;SDS011;51777;53.570;9.984;2023-03-20T03:27:05;17.02;;;8.95;;
65189;SDS011;51777;53.570;9.984;2023-03-20T03:29:36;18.25;;;8.77;;
65189;SDS011;51777;53.570;9.984;2023-03-20T03:32:04;15.52;;;7.88;;
65189;SDS011;51777;53.570;9.984;2023-03-20T03:34:31;17.58;;;7.85;;
65189;SDS011;51777;53.570;9.984;2023-03-20T03:37:08;14.90;;;7.47;;
65189;SDS011;51777;53.570;9.984;2023-03-20T03:42:28;14.50;;;7.90;;
65189;SDS011;51777;53.570;9.984;2023-03-20T03:45:02;17.00;;;7.88;;
65189;SDS011;51777;53.570;9.984;2023-03-20T03:47:31;14.32;;;7.75;;
65189;SDS011;51777;53.570;9.984;2023-03-20T03:50:16;14.82;;;8.20;;
65189;SDS011;51777;53.570;9.984;2023-03-20T03:52:46;16.52;;;7.55;;
65189;SDS011;51777;53.570;9.984;2023-03-20T03:55:16;14.48;;;7.80;;
65189;SDS011;51777;53.570;9.984;2023-03-20T03:57:49;14.02;;;8.32;;
65189;SDS011;51777;53.570;9.984;2023-03-20T04:00:20;15.68;;;8.30;;
65189;SDS011;51777;53.570;9.984;2023-03-20T04:02:50;15.40;;;8.35;;
65189;SDS011;51777;53.570;9.984;2023-03-20T04:05:20;14.60;;;8.45;;
65189;SDS011;51777;53.570;9.984;2023-03-20T04:07:47;14.93;;;8.15;;
65189;SDS011;51777;53.570;9.984;2023-03-20T04:10:16;14.00;;;8.48;;
65189;SDS011;51777;53.570;9.984;2023-03-20T04:12:42;14.05;;;7.93;;
65189;SDS011;51777;53.570;9.984;2023-03-20T04:15:10;14.88;;;8.45;;
65189;SDS011;51777;53.570;9.984;2023-03-20T04:17:37;12.38;;;7.60;;
65189;SDS011;51777;53.570;9.984;2023-03-20T04:20:02;14.05;;;7.97;;
65189;SDS011;51777;53.570;9.984;2023-03-20T04:22:28;13.73;;;7.25;;
65189;SDS011;51777;53.570;9.984;2023-03-20T04:24:54;16.95;;;8.43;;
65189;SDS011;51777;53.570;9.984;2023-03-20T04:27:20;15.75;;;8.68;;
65189;SDS011;51777;53.570;9.984;2023-03-20T04:29:45;16.58;;;8.90;;
65189;SDS011;51777;53.570;9.984;2023-03-20T04:32:11;12.60;;;7.60;;
65189;SDS011;51777;53.570;9.984;2023-03-20T04:34:37;13.73;;;8.35;;
65189;SDS011;51777;53.570;9.984;2023-03-20T04:37:02;15.57;;;8.95;;
65189;SDS011;51777;53.570;9.984;2023-03-20T04:39:29;14.48;;;8.05;;
65189;SDS011;51777;53.570;9.984;2023-03-20T04:41:55;14.57;;;8.52;;
65189;SDS011;51777;53.570;9.984;2023-03-20T04:44:20;9.43;;;6.10;;
65189;SDS011;51777;53.570;9.984;2023-03-20T04:46:46;7.00;;;4.13;;
65189;SDS011;51777;53.570;9.984;2023-03-20T04:49:11;8.55;;;5.22;;
65189;SDS011;51777;53.570;9.984;2023-03-20T04:51:37;6.43;;;3.70;;
65189;SDS011;51777;53.570;9.984;2023-03-20T04:54:02;12.82;;;5.82;;
65189;SDS011;51777;53.570;9.984;2023-03-20T04:56:28;9.55;;;4.38;;
65189;SDS011;51777;53.570;9.984;2023-03-20T04:58:53;6.57;;;4.28;;
65189;SDS011;51777;53.570;9.984;2023-03-20T05:01:18;5.45;;;3.25;;
65189;SDS011;51777;53.570;9.984;2023-03-20T05:03:44;6.03;;;3.72;;
65189;SDS011;51777;53.570;9.984;2023-03-20T05:06:11;12.25;;;6.40;;
65189;SDS011;51777;53.570;9.984;2023-03-20T05:08:37;5.82;;;3.53;;
65189;SDS011;51777;53.570;9.984;2023-03-20T05:11:02;9.85;;;5.93;;
65189;SDS011;51777;53.570;9.984;2023-03-20T05:13:28;10.82;;;6.50;;
65189;SDS011;51777;53.570;9.984;2023-03-20T05:15:53;13.13;;;6.10;;
65189;SDS011;51777;53.570;9.984;2023-03-20T05:18:19;10.68;;;6.13;;
65189;SDS011;51777;53.570;9.984;2023-03-20T05:20:44;10.77;;;6.50;;
65189;SDS011;51777;53.570;9.984;2023-03-20T05:23:09;10.50;;;6.60;;
65189;SDS011;51777;53.570;9.984;2023-03-20T05:25:35;7.65;;;4.82;;
65189;SDS011;51777;53.570;9.984;2023-03-20T05:28:00;8.63;;;6.57;;
65189;SDS011;51777;53.570;9.984;2023-03-20T05:30:26;6.65;;;4.93;;
65189;SDS011;51777;53.570;9.984;2023-03-20T05:32:52;9.50;;;5.57;;
65189;SDS011;51777;53.570;9.984;2023-03-20T05:35:17;15.70;;;8.55;;
65189;SDS011;51777;53.570;9.984;2023-03-20T05:37:43;12.85;;;8.50;;
65189;SDS011;51777;53.570;9.984;2023-03-20T05:40:13;11.30;;;7.15;;
65189;SDS011;51777;53.570;9.984;2023-03-20T05:42:39;13.07;;;7.97;;
65189;SDS011;51777;53.570;9.984;2023-03-20T05:45:05;12.15;;;6.32;;
65189;SDS011;51777;53.570;9.984;2023-03-20T05:47:31;13.60;;;8.32;;
65189;SDS011;51777;53.570;9.984;2023-03-20T05:49:57;7.47;;;4.38;;
65189;SDS011;51777;53.570;9.984;2023-03-20T05:52:22;6.88;;;4.85;;
65189;SDS011;51777;53.570;9.984;2023-03-20T05:54:48;12.65;;;7.78;;
65189;SDS011;51777;53.570;9.984;2023-03-20T05:57:13;12.95;;;8.00;;
65189;SDS011;51777;53.570;9.984;2023-03-20T05:59:40;3.97;;;2.88;;
65189;SDS011;51777;53.570;9.984;2023-03-20T06:02:05;7.18;;;4.18;;
65189;SDS011;51777;53.570;9.984;2023-03-20T06:04:31;11.70;;;6.72;;
65189;SDS011;51777;53.570;9.984;2023-03-20T06:06:56;10.38;;;7.03;;
65189;SDS011;51777;53.570;9.984;2023-03-20T06:09:22;10.18;;;6.15;;
65189;SDS011;51777;53.570;9.984;2023-03-20T06:11:47;8.57;;;5.45;;
65189;SDS011;51777;53.570;9.984;2023-03-20T06:14:13;9.50;;;5.25;;
65189;SDS011;51777;53.570;9.984;2023-03-20T06:16:38;11.02;;;5.65;;
65189;SDS011;51777;53.570;9.984;2023-03-20T06:19:04;10.88;;;6.32;;
65189;SDS011;51777;53.570;9.984;2023-03-20T06:21:29;8.10;;;5.25;;
65189;SDS011;51777;53.570;9.984;2023-03-20T06:23:55;9.52;;;5.82;;
65189;SDS011;51777;53.570;9.984;2023-03-20T06:26:22;8.48;;;4.85;;
65189;SDS011;51777;53.570;9.984;2023-03-20T06:28:47;9.98;;;6.20;;
65189;SDS011;51777;53.570;9.984;2023-03-20T06:31:12;6.30;;;3.78;;
65189;SDS011;51777;53.570;9.984;2023-03-20T06:33:38;11.35;;;6.47;;
65189;SDS011;51777;53.570;9.984;2023-03-20T06:36:04;10.57;;;6.40;;
65189;SDS011;51777;53.570;9.984;2023-03-20T06:38:29;5.30;;;3.22;;
65189;SDS011;51777;53.570;9.984;2023-03-20T06:40:55;8.35;;;4.60;;
65189;SDS011;51777;53.570;9.984;2023-03-20T06:43:23;9.52;;;6.00;;
65189;SDS011;51777;53.570;9.984;2023-03-20T06:45:49;9.98;;;6.05;;
65189;SDS011;51777;53.570;9.984;2023-03-20T06:48:14;10.02;;;6.68;;
65189;SDS011;51777;53.570;9.984;2023-03-20T06:50:45;14.07;;;5.70;;
65189;SDS011;51777;53.570;9.984;2023-03-20T06:53:12;2.92;;;2.30;;
65189;SDS011;51777;53.570;9.984;2023-03-20T06:55:37;3.13;;;2.53;;
65189;SDS011;51777;53.570;9.984;2023-03-20T06:58:02;6.03;;;3.55;;
65189;SDS011;51777;53.570;9.984;2023-03-20T07:00:28;9.70;;;5.10;;
65189;SDS011;51777;53.570;9.984;2023-03-20T07:02:53;5.43;;;3.05;;
65189;SDS011;51777;53.570;9.984;2023-03-20T07:05:19;9.07;;;5.30;;
65189;SDS011;51777;53.570;9.984;2023-03-20T07:07:45;5.93;;;4.13;;
65189;SDS011;51777;53.570;9.984;2023-03-20T07:10:11;10.68;;;5.47;;
65189;SDS011;51777;53.570;9.984;2023-03-20T07:12:36;7.05;;;3.55;;
65189;SDS011;51777;53.570;9.984;2023-03-20T07:15:02;8.00;;;5.07;;
65189;SDS011;51777;53.570;9.984;2023-03-20T07:17:28;9.88;;;5.70;;
65189;SDS011;51777;53.570;9.984;2023-03-20T07:19:53;10.20;;;5.50;;
65189;SDS011;51777;53.570;9.984;2023-03-20T07:22:20;5.57;;;4.03;;
65189;SDS011;51777;53.570;9.984;2023-03-20T07:24:47;5.55;;;3.65;;
65189;SDS011;51777;53.570;9.984;2023-03-20T07:27:13;8.13;;;3.05;;
65189;SDS011;51777;53.570;9.984;2023-03-20T07:29:39;11.73;;;5.35;;
65189;SDS011;51777;53.570;9.984;2023-03-20T07:32:04;9.52;;;5.07;;
65189;SDS011;51777;53.570;9.984;2023-03-20T07:34:30;8.40;;;5.05;;
65189;SDS011;51777;53.570;9.984;2023-03-20T07:36:55;7.63;;;5.07;;
65189;SDS011;51777;53.570;9.984;2023-03-20T07:39:21;6.57;;;3.47;;
65189;SDS011;51777;53.570;9.984;2023-03-20T07:41:46;11.52;;;5.60;;
65189;SDS011;51777;53.570;9.984;2023-03-20T07:44:12;9.07;;;5.00;;
65189;SDS011;51777;53.570;9.984;2023-03-20T07:46:38;12.93;;;5.70;;
65189;SDS011;51777;53.570;9.984;2023-03-20T07:49:05;9.13;;;4.93;;
65189;SDS011;51777;53.570;9.984;2023-03-20T07:51:31;12.23;;;5.20;;
65189;SDS011;51777;53.570;9.984;2023-03-20T07:53:57;7.82;;;4.75;;
65189;SDS011;51777;53.570;9.984;2023-03-20T07:56:22;7.45;;;4.25;;
65189;SDS011;51777;53.570;9.984;2023-03-20T07:58:48;12.77;;;5.28;;
65189;SDS011;51777;53.570;9.984;2023-03-20T08:01:13;5.57;;;2.97;;
65189;SDS011;51777;53.570;9.984;2023-03-20T08:03:43;4.30;;;3.30;;
65189;SDS011;51777;53.570;9.984;2023-03-20T08:06:08;8.57;;;5.15;;
65189;SDS011;51777;53.570;9.984;2023-03-20T08:08:35;3.70;;;2.60;;
65189;SDS011;51777;53.570;9.984;2023-03-20T08:11:00;9.23;;;4.90;;
65189;SDS011;51777;53.570;9.984;2023-03-20T08:13:26;8.35;;;3.95;;
65189;SDS011;51777;53.570;9.984;2023-03-20T08:15:52;10.75;;;4.88;;
65189;SDS011;51777;53.570;9.984;2023-03-20T08:18:18;8.25;;;3.58;;
65189;SDS011;51777;53.570;9.984;2023-03-20T08:20:46;3.35;;;2.55;;
65189;SDS011;51777;53.570;9.984;2023-03-20T08:23:12;7.32;;;4.43;;
65189;SDS011;51777;53.570;9.984;2023-03-20T08:25:37;9.80;;;4.68;;
65189;SDS011;51777;53.570;9.984;2023-03-20T08:28:03;8.90;;;4.68;;
65189;SDS011;51777;53.570;9.984;2023-03-20T08:30:28;3.70;;;2.38;;
65189;SDS011;51777;53.570;9.984;2023-03-20T08:32:54;11.57;;;4.78;;
65189;SDS011;51777;53.570;9.984;2023-03-20T08:35:22;3.95;;;2.72;;
65189;SDS011;51777;53.570;9.984;2023-03-20T08:37:47;8.05;;;4.30;;
65189;SDS011;51777;53.570;9.984;2023-03-20T08:40:13;14.27;;;4.55;;
65189;SDS011;51777;53.570;9.984;2023-03-20T08:42:38;4.50;;;2.80;;
65189;SDS011;51777;53.570;9.984;2023-03-20T08:45:04;7.10;;;4.50;;
65189;SDS011;51777;53.570;9.984;2023-03-20T08:47:30;9.00;;;4.25;;
65189;SDS011;51777;53.570;9.984;2023-03-20T08:49:55;4.78;;;3.33;;
65189;SDS011;51777;53.570;9.984;2023-03-20T08:52:21;8.18;;;4.40;;
65189;SDS011;51777;53.570;9.984;2023-03-20T08:54:46;8.27;;;5.15;;
65189;SDS011;51777;53.570;9.984;2023-03-20T08:57:12;5.10;;;3.40;;
65189;SDS011;51777;53.570;9.984;2023-03-20T08:59:37;9.48;;;5.28;;
65189;SDS011;51777;53.570;9.984;2023-03-20T09:02:03;6.75;;;4.55;;
65189;SDS011;51777;53.570;9.984;2023-03-20T09:04:28;7.28;;;4.47;;
65189;SDS011;51777;53.570;9.984;2023-03-20T09:06:54;7.28;;;3.13;;
65189;SDS011;51777;53.570;9.984;2023-03-20T09:09:20;4.75;;;3.60;;
65189;SDS011;51777;53.570;9.984;2023-03-20T09:11:51;5.50;;;3.55;;
65189;SDS011;51777;53.570;9.984;2023-03-20T09:14:16;9.02;;;5.10;;
65189;SDS011;51777;53.570;9.984;2023-03-20T09:16:42;9.05;;;5.05;;
65189;SDS011;51777;53.570;9.984;2023-03-20T09:19:07;4.82;;;2.72;;
65189;SDS011;51777;53.570;9.984;2023-03-20T09:24:01;9.95;;;4.40;;
65189;SDS011;51777;53.570;9.984;2023-03-20T09:26:46;9.93;;;5.10;;
65189;SDS011;51777;53.570;9.984;2023-03-20T09:29:13;7.57;;;5.00;;
65189;SDS011;51777;53.570;9.984;2023-03-20T09:31:39;7.80;;;4.10;;
65189;SDS011;51777;53.570;9.984;2023-03-20T09:34:04;8.05;;;4.30;;
65189;SDS011;51777;53.570;9.984;2023-03-20T09:36:31;4.20;;;3.13;;
65189;SDS011;51777;53.570;9.984;2023-03-20T09:38:57;7.63;;;4.80;;
65189;SDS011;51777;53.570;9.984;2023-03-20T09:41:24;6.35;;;3.25;;
65189;SDS011;51777;53.570;9.984;2023-03-20T09:44:12;10.80;;;4.65;;
65189;SDS011;51777;53.570;9.984;2023-03-20T09:52:20;6.97;;;4.53;;
65189;SDS011;51777;53.570;9.984;2023-03-20T09:54:53;10.75;;;5.75;;
65189;SDS011;51777;53.570;9.984;2023-03-20T09:59:54;5.47;;;3.90;;
65189;SDS011;51777;53.570;9.984;2023-03-20T10:03:06;10.07;;;5.63;;
65189;SDS011;51777;53.570;9.984;2023-03-20T10:05:26;10.00;;;5.10;;
65189;SDS011;51777;53.570;9.984;2023-03-20T10:08:02;13.48;;;5.45;;
65189;SDS011;51777;53.570;9.984;2023-03-20T10:13:23;4.38;;;3.20;;
65189;SDS011;51777;53.570;9.984;2023-03-20T10:15:54;9.32;;;6.30;;
65189;SDS011;51777;53.570;9.984;2023-03-20T10:18:31;7.32;;;4.93;;
65189;SDS011;51777;53.570;9.984;2023-03-20T10:26:17;14.70;;;6.25;;
65189;SDS011;51777;53.570;9.984;2023-03-20T10:28:55;5.53;;;2.42;;
65189;SDS011;51777;53.570;9.984;2023-03-20T10:34:11;7.82;;;4.20;;
65189;SDS011;51777;53.570;9.984;2023-03-20T10:42:39;10.73;;;6.20;;
65189;SDS011;51777;53.570;9.984;2023-03-20T10:45:23;11.30;;;5.45;;
65189;SDS011;51777;53.570;9.984;2023-03-20T10:47:51;9.23;;;6.00;;
65189;SDS011;51777;53.570;9.984;2023-03-20T10:50:20;7.47;;;3.72;;
65189;SDS011;51777;53.570;9.984;2023-03-20T10:52:52;12.70;;;5.00;;
65189;SDS011;51777;53.570;9.984;2023-03-20T10:55:22;11.07;;;5.53;;
65189;SDS011;51777;53.570;9.984;2023-03-20T10:57:55;8.23;;;4.88;;
65189;SDS011;51777;53.570;9.984;2023-03-20T11:00:24;4.40;;;3.08;;
65189;SDS011;51777;53.570;9.984;2023-03-20T11:02:51;12.43;;;5.85;;
65189;SDS011;51777;53.570;9.984;2023-03-20T11:05:24;10.98;;;5.78;;
65189;SDS011;51777;53.570;9.984;2023-03-20T11:08:01;9.40;;;4.65;;
65189;SDS011;51777;53.570;9.984;2023-03-20T11:10:37;14.10;;;5.73;;
65189;SDS011;51777;53.570;9.984;2023-03-20T11:13:21;9.02;;;3.70;;
65189;SDS011;51777;53.570;9.984;2023-03-20T11:15:53;9.10;;;4.07;;
65189;SDS011;51777;53.570;9.984;2023-03-20T11:18:19;9.90;;;3.88;;
65189;SDS011;51777;53.570;9.984;2023-03-20T11:20:52;6.63;;;3.75;;
65189;SDS011;51777;53.570;9.984;2023-03-20T11:23:23;8.75;;;4.72;;
65189;SDS011;51777;53.570;9.984;2023-03-20T11:25:55;7.97;;;3.92;;
65189;SDS011;51777;53.570;9.984;2023-03-20T11:28:33;9.23;;;5.00;;
65189;SDS011;51777;53.570;9.984;2023-03-20T11:31:04;5.63;;;2.90;;
65189;SDS011;51777;53.570;9.984;2023-03-20T11:36:31;11.75;;;5.10;;
65189;SDS011;51777;53.570;9.984;2023-03-20T11:39:09;6.55;;;3.55;;
65189;SDS011;51777;53.570;9.984;2023-03-20T11:41:45;6.75;;;3.60;;
65189;SDS011;51777;53.570;9.984;2023-03-20T11:44:24;6.72;;;3.28;;
65189;SDS011;51777;53.570;9.984;2023-03-20T11:47:04;9.10;;;4.43;;
65189;SDS011;51777;53.570;9.984;2023-03-20T11:49:47;4.47;;;2.80;;
65189;SDS011;51777;53.570;9.984;2023-03-20T11:52:31;8.20;;;5.20;;
65189;SDS011;51777;53.570;9.984;2023-03-20T11:55:02;11.18;;;3.35;;
65189;SDS011;51777;53.570;9.984;2023-03-20T11:57:32;12.50;;;5.03;;
65189;SDS011;51777;53.570;9.984;2023-03-20T12:02:39;4.75;;;2.95;;
65189;SDS011;51777;53.570;9.984;2023-03-20T12:07:55;10.30;;;5.30;;
65189;SDS011;51777;53.570;9.984;2023-03-20T12:10:23;9.05;;;4.30;;
65189;SDS011;51777;53.570;9.984;2023-03-20T12:12:56;5.57;;;3.15;;
65189;SDS011;51777;53.570;9.984;2023-03-20T12:15:28;7.72;;;5.00;;
65189;SDS011;51777;53.570;9.984;2023-03-20T12:20:34;8.18;;;2.97;;
65189;SDS011;51777;53.570;9.984;2023-03-20T12:31:31;13.35;;;5.43;;
65189;SDS011;51777;53.570;9.984;2023-03-20T12:36:50;10.93;;;5.35;;
65189;SDS011;51777;53.570;9.984;2023-03-20T12:39:24;13.07;;;5.07;;
65189;SDS011;51777;53.570;9.984;2023-03-20T12:58:07;14.45;;;5.40;;
65189;SDS011;51777;53.570;9.984;2023-03-20T13:03:28;7.32;;;4.50;;
65189;SDS011;51777;53.570;9.984;2023-03-20T13:11:52;7.22;;;3.78;;
65189;SDS011;51777;53.570;9.984;2023-03-20T13:17:19;4.30;;;2.70;;
65189;SDS011;51777;53.570;9.984;2023-03-20T13:28:51;9.15;;;3.92;;
65189;SDS011;51777;53.570;9.984;2023-03-20T13:37:37;13.13;;;4.72;;
65189;SDS011;51777;53.570;9.984;2023-03-20T13:40:13;10.50;;;3.57;;
65189;SDS011;51777;53.570;9.984;2023-03-20T13:42:47;8.68;;;3.35;;
65189;SDS011;51777;53.570;9.984;2023-03-20T13:45:39;8.75;;;3.75;;
65189;SDS011;51777;53.570;9.984;2023-03-20T13:48:21;7.15;;;3.22;;
65189;SDS011;51777;53.570;9.984;2023-03-20T13:54:14;7.28;;;2.58;;
65189;SDS011;51777;53.570;9.984;2023-03-20T14:05:03;12.45;;;4.25;;
65189;SDS011;51777;53.570;9.984;2023-03-20T14:07:36;9.82;;;4.43;;
65189;SDS011;51777;53.570;9.984;2023-03-20T14:12:54;10.48;;;3.55;;
65189;SDS011;51777;53.570;9.984;2023-03-20T14:15:21;8.65;;;3.65;;
65189;SDS011;51777;53.570;9.984;2023-03-20T14:17:52;4.78;;;2.28;;
65189;SDS011;51777;53.570;9.984;2023-03-20T14:20:27;4.95;;;3.75;;
65189;SDS011;51777;53.570;9.984;2023-03-20T14:23:06;4.25;;;2.75;;
65189;SDS011;51777;53.570;9.984;2023-03-20T14:25:42;9.38;;;4.55;;
65189;SDS011;51777;53.570;9.984;2023-03-20T14:30:40;6.90;;;3.88;;
65189;SDS011;51777;53.570;9.984;2023-03-20T14:33:07;3.88;;;2.50;;
65189;SDS011;51777;53.570;9.984;2023-03-20T14:35:51;10.15;;;3.85;;
65189;SDS011;51777;53.570;9.984;2023-03-20T14:38:46;8.93;;;2.90;;
65189;SDS011;51777;53.570;9.984;2023-03-20T14:41:23;7.85;;;3.35;;
65189;SDS011;51777;53.570;9.984;2023-03-20T14:44:26;13.32;;;4.53;;
65189;SDS011;51777;53.570;9.984;2023-03-20T14:47:23;10.23;;;4.00;;
65189;SDS011;51777;53.570;9.984;2023-03-20T14:52:39;7.60;;;3.40;;
65189;SDS011;51777;53.570;9.984;2023-03-20T15:01:17;11.43;;;3.88;;
65189;SDS011;51777;53.570;9.984;2023-03-20T15:03:49;7.28;;;3.03;;
65189;SDS011;51777;53.570;9.984;2023-03-20T15:06:16;16.00;;;4.55;;
65189;SDS011;51777;53.570;9.984;2023-03-20T15:08:48;19.45;;;4.47;;
65189;SDS011;51777;53.570;9.984;2023-03-20T15:11:20;11.02;;;4.50;;
65189;SDS011;51777;53.570;9.984;2023-03-20T15:13:48;9.43;;;4.70;;
65189;SDS011;51777;53.570;9.984;2023-03-20T15:16:33;8.32;;;3.35;;
65189;SDS011;51777;53.570;9.984;2023-03-20T15:19:20;7.30;;;4.22;;
65189;SDS011;51777;53.570;9.984;2023-03-20T15:21:49;8.57;;;4.47;;
65189;SDS011;51777;53.570;9.984;2023-03-20T15:24:19;11.68;;;4.55;;
65189;SDS011;51777;53.570;9.984;2023-03-20T15:27:08;5.72;;;3.15;;
65189;SDS011;51777;53.570;9.984;2023-03-20T15:29:38;13.77;;;4.65;;
65189;SDS011;51777;53.570;9.984;2023-03-20T15:32:17;7.97;;;3.90;;
65189;SDS011;51777;53.570;9.984;2023-03-20T15:34:45;12.35;;;4.57;;
65189;SDS011;51777;53.570;9.984;2023-03-20T15:37:38;9.30;;;4.35;;
65189;SDS011;51777;53.570;9.984;2023-03-20T15:40:29;9.45;;;4.70;;
65189;SDS011;51777;53.570;9.984;2023-03-20T15:43:16;8.85;;;4.00;;
65189;SDS011;51777;53.570;9.984;2023-03-20T15:45:43;18.08;;;4.78;;
65189;SDS011;51777;53.570;9.984;2023-03-20T15:48:14;12.80;;;4.78;;
65189;SDS011;51777;53.570;9.984;2023-03-20T15:53:43;11.15;;;5.00;;
65189;SDS011;51777;53.570;9.984;2023-03-20T15:56:14;11.60;;;5.00;;
65189;SDS011;51777;53.570;9.984;2023-03-20T15:58:53;10.15;;;5.25;;
65189;SDS011;51777;53.570;9.984;2023-03-20T16:01:49;12.27;;;4.95;;
65189;SDS011;51777;53.570;9.984;2023-03-20T16:04:20;11.45;;;5.15;;
65189;SDS011;51777;53.570;9.984;2023-03-20T16:09:22;11.40;;;5.22;;
65189;SDS011;51777;53.570;9.984;2023-03-20T16:12:06;11.38;;;5.68;;
65189;SDS011;51777;53.570;9.984;2023-03-20T16:14:40;11.02;;;5.68;;
65189;SDS011;51777;53.570;9.984;2023-03-20T16:17:05;11.93;;;5.47;;
65189;SDS011;51777;53.570;9.984;2023-03-20T16:19:31;12.88;;;5.72;;
65189;SDS011;51777;53.570;9.984;2023-03-20T16:22:02;12.43;;;5.30;;
65189;SDS011;51777;53.570;9.984;2023-03-20T16:24:56;12.43;;;6.07;;
65189;SDS011;51777;53.570;9.984;2023-03-20T16:27:32;8.75;;;5.63;;
65189;SDS011;51777;53.570;9.984;2023-03-20T16:30:03;12.70;;;5.75;;
65189;SDS011;51777;53.570;9.984;2023-03-20T16:32:48;13.80;;;6.28;;
65189;SDS011;51777;53.570;9.984;2023-03-20T16:35:25;16.75;;;6.72;;
65189;SDS011;51777;53.570;9.984;2023-03-20T16:38:12;13.85;;;6.28;;
65189;SDS011;51777;53.570;9.984;2023-03-20T16:40:40;13.65;;;6.13;;
65189;SDS011;51777;53.570;9.984;2023-03-20T16:43:16;13.00;;;6.18;;
65189;SDS011;51777;53.570;9.984;2023-03-20T16:45:45;17.92;;;6.25;;
65189;SDS011;51777;53.570;9.984;2023-03-20T16:48:19;12.20;;;5.63;;
65189;SDS011;51777;53.570;9.984;2023-03-20T16:50:48;18.02;;;6.45;;
65189;SDS011;51777;53.570;9.984;2023-03-20T16:55:51;16.05;;;6.03;;
65189;SDS011;51777;53.570;9.984;2023-03-20T16:58:22;10.05;;;6.57;;
65189;SDS011;51777;53.570;9.984;2023-03-20T17:01:08;24.33;;;10.02;;
65189;SDS011;51777;53.570;9.984;2023-03-20T17:08:46;14.27;;;6.90;;
65189;SDS011;51777;53.570;9.984;2023-03-20T17:11:15;12.85;;;6.85;;
65189;SDS011;51777;53.570;9.984;2023-03-20T17:13:57;15.10;;;7.07;;
65189;SDS011;51777;53.570;9.984;2023-03-20T17:16:22;18.35;;;6.57;;
65189;SDS011;51777;53.570;9.984;2023-03-20T17:21:25;14.20;;;6.65;;
65189;SDS011;51777;53.570;9.984;2023-03-20T17:23:51;17.50;;;7.32;;
65189;SDS011;51777;53.570;9.984;2023-03-20T17:26:17;14.85;;;7.35;;
65189;SDS011;51777;53.570;9.984;2023-03-20T17:28:42;12.18;;;6.90;;
65189;SDS011;51777;53.570;9.984;2023-03-20T17:31:11;13.50;;;6.80;;
65189;SDS011;51777;53.570;9.984;2023-03-20T17:33:37;13.98;;;7.13;;
65189;SDS011;51777;53.570;9.984;2023-03-20T17:36:03;14.80;;;7.40;;
65189;SDS011;51777;53.570;9.984;2023-03-20T17:38:29;14.23;;;7.15;;
65189;SDS011;51777;53.570;9.984;2023-03-20T17:40:55;14.38;;;6.90;;
65189;SDS011;51777;53.570;9.984;2023-03-20T17:43:20;14.93;;;7.70;;
65189;SDS011;51777;53.570;9.984;2023-03-20T17:45:46;17.58;;;7.50;;
65189;SDS011;51777;53.570;9.984;2023-03-20T17:48:16;13.95;;;7.28;;
65189;SDS011;51777;53.570;9.984;2023-03-20T17:50:44;20.75;;;7.22;;